createdAt,value
2018-09-21T00:00:22.280Z,1.90
2018-09-21T00:02:50.595Z,2.03
2018-09-21T00:05:18.865Z,2.20
2018-09-21T00:07:48.250Z,1.97
2018-09-21T00:10:16.360Z,2.33
2018-09-21T00:12:44.468Z,2.10
2018-09-21T00:15:12.575Z,1.90
2018-09-21T00:17:41.390Z,1.63
2018-09-21T00:20:09.512Z,2.00
2018-09-21T00:22:37.608Z,1.90
2018-09-21T00:25:05.932Z,2.10
2018-09-21T00:27:34.172Z,1.93
2018-09-21T00:30:02.315Z,2.07
2018-09-21T00:32:30.483Z,1.80
2018-09-21T00:34:58.584Z,1.63
2018-09-21T00:37:26.832Z,2.30
2018-09-21T00:39:54.949Z,1.90
2018-09-21T00:42:23.085Z,1.97
2018-09-21T00:44:51.171Z,2.00
2018-09-21T00:47:19.262Z,2.13
2018-09-21T00:49:47.351Z,2.10
2018-09-21T00:52:15.543Z,1.93
2018-09-21T00:54:43.635Z,2.23
2018-09-21T00:57:11.780Z,1.80
2018-09-21T00:59:39.929Z,1.70
2018-09-21T01:02:08.044Z,1.83
2018-09-21T01:04:42.178Z,1.43
2018-09-21T01:07:11.004Z,2.20
2018-09-21T01:09:39.091Z,2.50
2018-09-21T01:12:07.400Z,2.30
2018-09-21T01:14:35.508Z,1.83
2018-09-21T01:17:03.638Z,1.97
2018-09-21T01:19:31.993Z,2.20
2018-09-21T01:22:00.090Z,1.60
2018-09-21T01:24:28.192Z,2.03
2018-09-21T01:26:56.341Z,1.90
2018-09-21T01:29:24.454Z,1.60
2018-09-21T01:31:52.581Z,1.90
2018-09-21T01:34:20.750Z,2.00
2018-09-21T01:36:48.809Z,1.90
2018-09-21T01:39:16.953Z,1.80
2018-09-21T01:41:45.071Z,1.80
2018-09-21T01:44:13.194Z,2.10
2018-09-21T01:46:42.280Z,2.20
2018-09-21T01:49:10.367Z,2.03
2018-09-21T01:51:38.487Z,2.17
2018-09-21T01:54:06.608Z,1.80
2018-09-21T01:56:34.974Z,2.00
2018-09-21T01:59:03.380Z,1.73
2018-09-21T02:01:31.489Z,1.77
2018-09-21T02:03:59.955Z,2.03
2018-09-21T02:06:28.097Z,1.80
2018-09-21T02:08:56.226Z,2.00
2018-09-21T02:11:24.336Z,1.90
2018-09-21T02:13:53.813Z,2.17
2018-09-21T02:16:22.635Z,2.40
2018-09-21T02:18:50.740Z,1.77
2018-09-21T02:21:18.918Z,1.90
2018-09-21T02:23:47.787Z,1.80
2018-09-21T02:26:17.079Z,1.97
2018-09-21T02:28:45.382Z,1.90
2018-09-21T02:31:13.507Z,1.80
2018-09-21T02:33:41.736Z,1.90
2018-09-21T02:36:09.871Z,2.10
2018-09-21T02:38:38.043Z,2.10
2018-09-21T02:41:06.415Z,1.80
2018-09-21T02:43:34.520Z,1.93
2018-09-21T02:46:02.661Z,2.03
2018-09-21T02:48:30.887Z,2.00
2018-09-21T02:50:59.026Z,1.53
2018-09-21T02:53:27.160Z,1.90
2018-09-21T02:55:55.372Z,1.80
2018-09-21T02:58:24.198Z,1.67
2018-09-21T03:00:53.096Z,1.80
2018-09-21T03:03:21.104Z,1.90
2018-09-21T03:05:49.187Z,1.60
2018-09-21T03:08:18.126Z,2.23
2018-09-21T03:10:46.224Z,2.60
2018-09-21T03:13:14.455Z,1.77
2018-09-21T03:15:42.495Z,1.97
2018-09-21T03:18:12.516Z,1.70
2018-09-21T03:20:41.536Z,1.67
2018-09-21T03:23:10.635Z,1.70
2018-09-21T03:25:38.940Z,2.10
2018-09-21T03:28:07.039Z,1.60
2018-09-21T03:30:35.150Z,1.80
2018-09-21T03:33:03.253Z,1.77
2018-09-21T03:35:32.061Z,2.20
2018-09-21T03:38:00.946Z,2.13
2018-09-21T03:40:29.064Z,2.20
2018-09-21T03:42:57.404Z,2.10
2018-09-21T03:45:25.503Z,1.80
2018-09-21T03:47:53.627Z,2.07
2018-09-21T03:50:21.806Z,1.70
2018-09-21T03:52:49.889Z,1.67
2018-09-21T03:55:17.964Z,1.70
2018-09-21T03:57:46.053Z,1.87
2018-09-21T04:00:14.119Z,1.73
2018-09-21T04:02:42.212Z,1.60
2018-09-21T04:05:10.294Z,1.70
2018-09-21T04:07:38.359Z,2.30
2018-09-21T04:10:06.436Z,1.73
2018-09-21T04:12:34.499Z,1.80
2018-09-21T04:15:02.589Z,1.63
2018-09-21T04:17:30.683Z,2.10
2018-09-21T04:19:58.763Z,1.60
2018-09-21T04:22:26.862Z,1.97
2018-09-21T04:24:54.964Z,2.00
2018-09-21T04:27:23.068Z,1.60
2018-09-21T04:29:51.163Z,2.10
2018-09-21T04:32:19.264Z,1.70
2018-09-21T04:34:47.347Z,1.80
2018-09-21T04:37:15.435Z,1.77
2018-09-21T04:39:43.529Z,2.03
2018-09-21T04:42:11.619Z,2.30
2018-09-21T04:44:39.723Z,3.30
2018-09-21T04:47:07.796Z,2.80
2018-09-21T04:49:35.915Z,2.57
2018-09-21T04:52:03.981Z,2.53
2018-09-21T04:54:32.071Z,2.53
2018-09-21T04:57:00.163Z,2.60
2018-09-21T04:59:28.258Z,3.03
2018-09-21T05:01:56.502Z,2.63
2018-09-21T05:04:24.803Z,2.87
2018-09-21T05:06:52.875Z,2.53
2018-09-21T05:09:20.947Z,2.90
2018-09-21T05:11:49.281Z,2.87
2018-09-21T05:14:17.371Z,3.20
2018-09-21T05:16:45.463Z,3.40
2018-09-21T05:19:13.536Z,3.60
2018-09-21T05:21:41.603Z,3.23
2018-09-21T05:24:10.110Z,2.80
2018-09-21T05:26:38.288Z,3.30
2018-09-21T05:29:06.855Z,2.93
2018-09-21T05:31:34.978Z,3.33
2018-09-21T05:34:03.113Z,3.60
2018-09-21T05:36:31.178Z,2.93
2018-09-21T05:38:59.263Z,3.37
2018-09-21T05:41:27.365Z,3.03
2018-09-21T05:43:56.056Z,3.00
2018-09-21T05:46:24.217Z,3.40
2018-09-21T05:48:52.352Z,3.23
2018-09-21T05:51:20.515Z,2.83
2018-09-21T05:53:48.727Z,3.70
2018-09-21T05:56:16.909Z,3.23
2018-09-21T05:58:45.208Z,3.40
2018-09-21T06:01:13.319Z,3.10
2018-09-21T06:03:41.413Z,3.33
2018-09-21T06:06:09.521Z,3.40
2018-09-21T06:08:37.719Z,3.70
2018-09-21T06:11:05.807Z,3.70
2018-09-21T06:13:33.989Z,5.03
2018-09-21T06:16:02.067Z,3.70
2018-09-21T06:18:30.148Z,3.47
2018-09-21T06:20:58.304Z,4.00
2018-09-21T06:23:26.765Z,3.97
2018-09-21T06:25:54.842Z,3.60
2018-09-21T06:28:23.066Z,3.90
2018-09-21T06:30:51.179Z,3.53
2018-09-21T06:33:19.270Z,3.60
2018-09-21T06:35:47.421Z,3.23
2018-09-21T06:38:15.603Z,3.43
2018-09-21T06:40:43.706Z,3.53
2018-09-21T06:43:11.800Z,3.33
2018-09-21T06:45:39.914Z,3.50
2018-09-21T06:48:07.999Z,3.40
2018-09-21T06:50:36.099Z,3.30
2018-09-21T06:53:04.180Z,3.57
2018-09-21T06:55:32.678Z,3.30
2018-09-21T06:58:00.778Z,3.40
2018-09-21T07:00:29.140Z,2.93
2018-09-21T07:02:57.248Z,3.10
2018-09-21T07:05:25.332Z,3.00
2018-09-21T07:07:53.472Z,3.10
2018-09-21T07:10:21.597Z,3.33
2018-09-21T07:12:49.694Z,3.03
2018-09-21T07:15:17.787Z,3.03
2018-09-21T07:17:46.006Z,3.07
2018-09-21T07:20:14.095Z,2.83
2018-09-21T07:22:42.167Z,3.03
2018-09-21T07:25:10.259Z,2.97
2018-09-21T07:27:38.367Z,3.23
2018-09-21T07:30:06.492Z,3.07
2018-09-21T07:32:34.600Z,3.10
2018-09-21T07:35:02.700Z,3.20
2018-09-21T07:37:30.881Z,3.73
2018-09-21T07:39:58.906Z,3.60
2018-09-21T07:42:27.016Z,3.43
2018-09-21T07:44:55.108Z,3.50
2018-09-21T07:47:23.216Z,3.90
2018-09-21T07:49:51.296Z,3.40
2018-09-21T07:52:19.419Z,3.57
2018-09-21T07:54:47.569Z,2.93
2018-09-21T07:57:15.696Z,2.93
2018-09-21T07:59:43.796Z,3.07
2018-09-21T08:02:11.915Z,3.50
2018-09-21T08:04:40.011Z,3.13
2018-09-21T08:07:08.284Z,3.20
2018-09-21T08:09:36.343Z,2.93
2018-09-21T08:12:04.475Z,3.43
2018-09-21T08:14:32.547Z,3.00
2018-09-21T08:17:00.779Z,3.27
2018-09-21T08:19:29.020Z,3.27
2018-09-21T08:21:57.100Z,3.47
2018-09-21T08:24:25.179Z,3.50
2018-09-21T08:26:53.280Z,2.90
2018-09-21T08:29:21.376Z,3.33
2018-09-21T08:31:49.496Z,2.80
2018-09-21T08:34:17.602Z,2.90
2018-09-21T08:36:45.735Z,2.90
2018-09-21T08:39:13.840Z,2.90
2018-09-21T08:41:42.097Z,2.73
2018-09-21T08:44:10.519Z,2.93
2018-09-21T08:46:38.652Z,2.87
2018-09-21T08:49:06.733Z,3.00
2018-09-21T08:51:34.850Z,2.80
2018-09-21T08:54:02.931Z,2.50
2018-09-21T08:56:31.031Z,2.57
2018-09-21T08:58:59.156Z,2.80
2018-09-21T09:01:27.235Z,2.60
2018-09-21T09:03:55.336Z,2.97
2018-09-21T09:06:23.443Z,3.23
2018-09-21T09:08:51.539Z,2.80
2018-09-21T09:11:19.651Z,2.90
2018-09-21T09:13:48.199Z,3.00
2018-09-21T09:16:16.304Z,2.50
2018-09-21T09:18:44.443Z,3.13
2018-09-21T09:21:12.548Z,2.80
2018-09-21T09:23:40.635Z,2.57
2018-09-21T09:26:08.711Z,2.80
2018-09-21T09:28:36.799Z,2.90
2018-09-21T09:31:04.876Z,2.60
2018-09-21T09:33:32.976Z,2.70
2018-09-21T09:36:01.059Z,2.70
2018-09-21T09:38:29.156Z,2.40
2018-09-21T09:40:57.255Z,2.70
2018-09-21T09:43:25.464Z,2.40
2018-09-21T09:45:53.451Z,2.67
2018-09-21T09:48:21.580Z,2.90
2018-09-21T09:50:49.620Z,2.63
2018-09-21T09:53:17.720Z,2.53
2018-09-21T09:55:45.815Z,2.13
2018-09-21T09:58:13.940Z,2.40
2018-09-21T10:00:47.448Z,2.57
2018-09-21T10:03:15.603Z,2.70
2018-09-21T10:05:44.599Z,2.57
2018-09-21T10:08:13.488Z,2.80
2018-09-21T10:10:41.783Z,2.50
2018-09-21T10:13:10.509Z,2.63
2018-09-21T10:15:38.822Z,2.43
2018-09-21T10:18:07.219Z,2.87
2018-09-21T10:20:35.409Z,2.23
2018-09-21T10:23:03.684Z,2.40
2018-09-21T10:25:32.385Z,2.57
2018-09-21T10:28:00.916Z,2.53
2018-09-21T10:30:28.791Z,2.50
2018-09-21T10:32:56.907Z,2.40
2018-09-21T10:35:25.040Z,2.47
2018-09-21T10:37:53.337Z,2.30
2018-09-21T10:40:21.644Z,2.07
2018-09-21T10:42:50.076Z,2.20
2018-09-21T10:45:18.091Z,2.70
2018-09-21T10:47:46.203Z,2.40
2018-09-21T10:50:14.372Z,2.27
2018-09-21T10:52:42.540Z,2.30
2018-09-21T10:55:10.571Z,2.30
2018-09-21T10:57:38.692Z,2.30
2018-09-21T11:00:07.924Z,2.30
2018-09-21T11:02:36.191Z,2.40
2018-09-21T11:05:04.645Z,2.23
2018-09-21T11:07:32.790Z,2.50
2018-09-21T11:10:01.256Z,2.30
2018-09-21T11:12:29.502Z,2.20
2018-09-21T11:14:58.412Z,2.30
2018-09-21T11:17:26.683Z,2.20
2018-09-21T11:19:54.807Z,2.10
2018-09-21T11:22:22.890Z,2.37
2018-09-21T11:24:51.008Z,2.13
2018-09-21T11:27:19.374Z,2.20
2018-09-21T11:29:47.472Z,1.80
2018-09-21T11:32:15.556Z,2.10
2018-09-21T11:34:43.645Z,2.13
2018-09-21T11:37:11.735Z,2.17
2018-09-21T11:39:39.853Z,1.80
2018-09-21T11:42:07.927Z,2.40
2018-09-21T11:44:36.208Z,2.30
2018-09-21T11:47:04.343Z,2.40
2018-09-21T11:49:32.392Z,2.07
2018-09-21T11:52:00.490Z,2.00
2018-09-21T11:54:28.589Z,2.10
2018-09-21T11:56:56.683Z,2.20
2018-09-21T11:59:24.784Z,1.90
2018-09-21T12:01:52.957Z,2.30
2018-09-21T12:04:21.011Z,2.27
2018-09-21T12:06:49.107Z,2.20
2018-09-21T12:09:17.240Z,2.10
2018-09-21T12:11:45.355Z,2.10
2018-09-21T12:14:13.667Z,2.33
2018-09-21T12:16:41.762Z,2.10
2018-09-21T12:19:09.913Z,2.00
2018-09-21T12:21:38.048Z,2.10
2018-09-21T12:24:06.163Z,2.57
2018-09-21T12:26:35.200Z,2.10
2018-09-21T12:29:03.293Z,1.93
2018-09-21T12:31:31.377Z,2.10
2018-09-21T12:33:59.508Z,2.03
2018-09-21T12:36:28.022Z,2.00
2018-09-21T12:38:56.062Z,2.13
2018-09-21T12:41:24.140Z,1.93
2018-09-21T12:43:52.263Z,2.17
2018-09-21T12:46:25.383Z,2.13
2018-09-21T12:48:55.403Z,1.90
2018-09-21T12:51:23.781Z,2.00
2018-09-21T12:53:51.880Z,2.03
2018-09-21T12:56:20.185Z,2.10
2018-09-21T12:58:48.331Z,2.53
2018-09-21T13:01:16.371Z,1.97
2018-09-21T13:03:44.460Z,2.00
2018-09-21T13:06:12.551Z,1.83
2018-09-21T13:08:40.621Z,2.00
2018-09-21T13:11:08.717Z,2.20
2018-09-21T13:13:36.795Z,2.40
2018-09-21T13:16:04.880Z,1.90
2018-09-21T13:18:32.939Z,2.00
2018-09-21T13:21:01.019Z,1.80
2018-09-21T13:23:29.224Z,2.23
2018-09-21T13:25:57.295Z,1.97
2018-09-21T13:28:25.359Z,2.10
2018-09-21T13:30:53.460Z,2.10
2018-09-21T13:33:21.596Z,1.93
2018-09-21T13:35:49.712Z,2.17
2018-09-21T13:38:17.771Z,2.00
2018-09-21T13:40:45.957Z,1.63
2018-09-21T13:43:14.112Z,1.80
2018-09-21T13:45:42.266Z,1.70
2018-09-21T13:48:10.428Z,1.53
2018-09-21T13:50:38.525Z,1.70
2018-09-21T13:53:06.672Z,2.13
2018-09-21T13:55:34.814Z,1.60
2018-09-21T13:58:02.884Z,1.87
2018-09-21T14:00:30.988Z,2.00
2018-09-21T14:02:59.123Z,1.77
2018-09-21T14:05:27.214Z,1.80
2018-09-21T14:07:55.347Z,1.93
2018-09-21T14:10:23.439Z,1.80
2018-09-21T14:12:51.523Z,1.63
2018-09-21T14:15:19.614Z,1.90
2018-09-21T14:17:47.714Z,1.80
2018-09-21T14:20:15.807Z,1.57
2018-09-21T14:22:43.896Z,1.80
2018-09-21T14:25:12.028Z,1.70
2018-09-21T14:27:40.160Z,1.50
2018-09-21T14:30:08.250Z,1.50
2018-09-21T14:32:36.396Z,1.60
2018-09-21T14:35:04.653Z,1.77
2018-09-21T14:37:32.763Z,1.50
2018-09-21T14:40:00.850Z,1.77
2018-09-21T14:42:29.252Z,1.60
2018-09-21T14:44:57.716Z,1.47
2018-09-21T14:47:27.503Z,1.83
2018-09-21T14:49:55.610Z,1.93
2018-09-21T14:52:23.723Z,2.57
2018-09-21T14:54:51.832Z,2.53
2018-09-21T14:57:19.933Z,2.77
2018-09-21T14:59:48.216Z,2.47
2018-09-21T15:02:16.322Z,2.47
2018-09-21T15:04:45.320Z,2.00
2018-09-21T15:07:14.662Z,2.20
2018-09-21T15:09:47.103Z,1.93
2018-09-21T15:12:15.639Z,2.13
2018-09-21T15:14:43.962Z,2.90
2018-09-21T15:17:12.090Z,2.23
2018-09-21T15:19:40.182Z,1.97
2018-09-21T15:22:13.035Z,3.17
2018-09-21T15:24:41.116Z,2.00
2018-09-21T15:27:09.239Z,2.20
2018-09-21T15:29:37.395Z,2.40
2018-09-21T15:32:06.906Z,2.20
2018-09-21T15:34:36.346Z,2.50
2018-09-21T15:37:04.456Z,1.93
2018-09-21T15:39:32.559Z,1.83
2018-09-21T15:42:07.981Z,2.07
2018-09-21T15:44:36.086Z,1.93
2018-09-21T15:47:05.080Z,2.30
2018-09-21T15:49:34.050Z,2.23
2018-09-21T15:52:03.876Z,2.03
2018-09-21T15:54:31.970Z,1.97
2018-09-21T15:57:00.882Z,2.10
2018-09-21T15:59:29.261Z,2.00
2018-09-21T16:01:57.416Z,2.20
2018-09-21T16:04:25.619Z,1.50
2018-09-21T16:06:53.778Z,1.83
2018-09-21T16:09:21.806Z,1.70
2018-09-21T16:11:51.241Z,2.23
2018-09-21T16:14:19.495Z,2.13
2018-09-21T16:16:48.944Z,2.30
2018-09-21T16:19:17.619Z,2.10
2018-09-21T16:21:45.710Z,1.83
2018-09-21T16:24:13.826Z,2.60
2018-09-21T16:26:42.863Z,2.30
2018-09-21T16:29:12.208Z,2.03
2018-09-21T16:31:44.882Z,2.37
2018-09-21T16:34:12.978Z,2.70
2018-09-21T16:36:41.141Z,3.00
2018-09-21T16:39:10.815Z,2.30
2018-09-21T16:41:40.564Z,2.50
2018-09-21T16:44:10.643Z,2.57
2018-09-21T16:46:39.337Z,2.80
2018-09-21T16:49:07.430Z,2.47
2018-09-21T16:51:35.638Z,2.20
2018-09-21T16:54:03.906Z,2.60
2018-09-21T16:56:31.992Z,2.33
2018-09-21T16:59:00.157Z,3.00
2018-09-21T17:01:28.169Z,2.17
2018-09-21T17:03:56.251Z,2.50
2018-09-21T17:06:24.339Z,2.60
2018-09-21T17:08:52.902Z,2.70
2018-09-21T17:11:21.049Z,2.67
2018-09-21T17:13:49.069Z,2.47
2018-09-21T17:16:17.166Z,2.07
2018-09-21T17:18:45.257Z,2.20
2018-09-21T17:21:13.372Z,2.20
2018-09-21T17:23:41.419Z,2.13
2018-09-21T17:26:09.492Z,2.17
2018-09-21T17:28:37.567Z,2.60
2018-09-21T17:31:05.629Z,2.60
2018-09-21T17:33:33.711Z,2.40
2018-09-21T17:36:01.771Z,2.00
2018-09-21T17:38:29.851Z,1.73
2018-09-21T17:40:57.952Z,2.50
2018-09-21T17:43:26.035Z,2.23
2018-09-21T17:45:54.083Z,2.00
2018-09-21T17:48:23.267Z,2.23
2018-09-21T17:50:51.354Z,2.17
2018-09-21T17:53:19.464Z,1.97
2018-09-21T17:55:47.543Z,1.80
2018-09-21T17:58:15.622Z,2.50
2018-09-21T18:00:43.703Z,2.17
2018-09-21T18:03:11.775Z,1.50
2018-09-21T18:05:39.860Z,2.17
2018-09-21T18:08:07.967Z,2.50
2018-09-21T18:10:36.055Z,1.70
2018-09-21T18:13:04.120Z,1.80
2018-09-21T18:15:32.199Z,2.47
2018-09-21T18:18:00.276Z,1.87
2018-09-21T18:20:28.384Z,1.60
2018-09-21T18:22:56.467Z,2.13
2018-09-21T18:25:24.545Z,2.10
2018-09-21T18:27:52.635Z,1.80
2018-09-21T18:30:20.711Z,2.03
2018-09-21T18:32:48.801Z,1.90
2018-09-21T18:35:16.892Z,2.00
2018-09-21T18:37:45.000Z,2.07
2018-09-21T18:40:13.108Z,1.83
2018-09-21T18:42:41.230Z,2.20
2018-09-21T18:45:09.314Z,1.80
2018-09-21T18:47:37.412Z,1.97
2018-09-21T18:50:05.664Z,1.80
2018-09-21T18:52:33.754Z,1.40
2018-09-21T18:55:01.856Z,2.10
2018-09-21T18:57:29.959Z,1.87
2018-09-21T18:59:58.051Z,2.00
2018-09-21T19:02:26.197Z,1.60
2018-09-21T19:04:54.286Z,1.83
2018-09-21T19:07:28.802Z,1.50
2018-09-21T19:09:57.030Z,1.83
2018-09-21T19:12:25.120Z,1.67
2018-09-21T19:14:53.191Z,2.10
2018-09-21T19:17:21.267Z,1.70
2018-09-21T19:19:49.523Z,1.90
2018-09-21T19:22:17.611Z,1.87
2018-09-21T19:24:45.723Z,1.70
2018-09-21T19:27:13.816Z,1.57
2018-09-21T19:29:41.903Z,1.73
2018-09-21T19:32:09.999Z,1.60
2018-09-21T19:34:38.091Z,1.70
2018-09-21T19:37:06.171Z,2.13
2018-09-21T19:39:34.235Z,1.80
2018-09-21T19:42:02.363Z,2.03
2018-09-21T19:44:30.489Z,1.70
2018-09-21T19:46:58.588Z,1.80
2018-09-21T19:49:26.707Z,1.70
2018-09-21T19:51:54.784Z,1.70
2018-09-21T19:54:22.856Z,1.60
2018-09-21T19:56:50.928Z,1.63
2018-09-21T19:59:19.004Z,1.60
2018-09-21T20:01:47.108Z,1.70
2018-09-21T20:04:15.183Z,1.50
2018-09-21T20:06:43.237Z,1.70
2018-09-21T20:09:12.316Z,1.70
2018-09-21T20:11:40.798Z,1.90
2018-09-21T20:14:08.881Z,1.90
2018-09-21T20:16:37.004Z,2.00
2018-09-21T20:19:05.023Z,1.97
2018-09-21T20:21:33.097Z,2.17
2018-09-21T20:24:01.169Z,1.97
2018-09-21T20:26:29.247Z,1.73
2018-09-21T20:28:57.347Z,2.00
2018-09-21T20:31:30.869Z,1.60
2018-09-21T20:33:58.959Z,1.53
2018-09-21T20:36:27.086Z,1.60
2018-09-21T20:38:55.412Z,2.60
2018-09-21T20:41:23.507Z,1.70
2018-09-21T20:43:51.620Z,1.67
2018-09-21T20:46:19.698Z,1.87
2018-09-21T20:48:48.006Z,1.63
2018-09-21T20:51:16.112Z,1.40
2018-09-21T20:53:44.215Z,1.80
2018-09-21T20:56:12.351Z,1.53
2018-09-21T20:58:41.024Z,1.83
2018-09-21T21:01:09.175Z,2.07
2018-09-21T21:03:37.269Z,1.53
2018-09-21T21:06:05.404Z,1.70
2018-09-21T21:08:33.513Z,1.67
2018-09-21T21:11:01.640Z,1.53
2018-09-21T21:13:29.915Z,1.90
2018-09-21T21:15:58.011Z,2.07
2018-09-21T21:18:26.110Z,1.50
2018-09-21T21:20:54.199Z,1.40
2018-09-21T21:23:23.103Z,1.50
2018-09-21T21:25:51.286Z,1.33
2018-09-21T21:28:19.372Z,1.67
2018-09-21T21:30:47.637Z,1.67
2018-09-21T21:33:15.842Z,1.63
2018-09-21T21:35:44.139Z,1.57
2018-09-21T21:38:12.292Z,1.70
2018-09-21T21:40:40.467Z,1.63
2018-09-21T21:43:08.609Z,1.47
2018-09-21T21:45:36.755Z,1.80
2018-09-21T21:48:04.896Z,1.37
2018-09-21T21:50:33.006Z,1.70
2018-09-21T21:53:01.174Z,1.60
2018-09-21T21:55:29.279Z,1.30
2018-09-21T21:57:57.348Z,1.30
2018-09-21T22:00:29.743Z,1.60
2018-09-21T22:02:57.903Z,1.50
2018-09-21T22:05:25.954Z,1.67
2018-09-21T22:07:54.061Z,1.60
2018-09-21T22:10:22.186Z,1.27
2018-09-21T22:14:57.216Z,1.83
2018-09-21T22:17:25.315Z,1.87
2018-09-21T22:19:53.399Z,1.60
2018-09-21T22:22:21.554Z,1.50
2018-09-21T22:24:49.660Z,1.47
2018-09-21T22:27:18.084Z,2.03
2018-09-21T22:29:46.179Z,1.67
2018-09-21T22:32:14.325Z,2.37
2018-09-21T22:34:43.035Z,1.80
2018-09-21T22:37:11.292Z,1.80
2018-09-21T22:39:39.400Z,1.93
2018-09-21T22:42:07.607Z,1.70
2018-09-21T22:44:35.880Z,2.00
2018-09-21T22:47:04.003Z,2.00
2018-09-21T22:49:32.095Z,1.40
2018-09-21T22:52:00.223Z,1.63
2018-09-21T22:54:28.300Z,1.63
2018-09-21T22:56:56.402Z,1.80
2018-09-21T22:59:24.559Z,1.70
2018-09-21T23:01:52.664Z,1.67
2018-09-21T23:04:20.807Z,1.90
2018-09-21T23:06:49.042Z,2.10
2018-09-21T23:09:17.181Z,2.00
2018-09-21T23:11:45.280Z,1.50
2018-09-21T23:14:13.379Z,1.40
2018-09-21T23:16:41.491Z,1.60
2018-09-21T23:19:10.032Z,1.20
2018-09-21T23:21:38.386Z,1.93
2018-09-21T23:24:06.488Z,1.57
2018-09-21T23:26:34.609Z,1.80
2018-09-21T23:29:02.960Z,1.47
2018-09-21T23:31:31.159Z,1.60
2018-09-21T23:33:59.239Z,2.03
2018-09-21T23:36:27.327Z,1.60
2018-09-21T23:38:55.418Z,1.53
2018-09-21T23:41:23.499Z,1.60
2018-09-21T23:43:51.620Z,1.30
2018-09-21T23:46:19.734Z,1.87
2018-09-21T23:48:47.855Z,1.53
2018-09-21T23:51:15.938Z,1.30
2018-09-21T23:53:44.031Z,2.00
2018-09-21T23:56:12.133Z,1.70
2018-09-21T23:58:40.240Z,1.57
